sensor_id;sensor_type;location;lat;lon;timestamp;temperature;humidity
7512;DHT22;9999;48.780;9.146;2023-08-30T00:01:43;13.60;99.90
7512;DHT22;9999;48.780;9.146;2023-08-30T00:04:10;13.70;99.90
7512;DHT22;9999;48.780;9.146;2023-08-30T00:06:36;13.70;99.90
7512;DHT22;9999;48.780;9.146;2023-08-30T00:09:03;13.70;99.90
7512;DHT22;9999;48.780;9.146;2023-08-30T00:11:31;13.70;99.90
7512;DHT22;9999;48.780;9.146;2023-08-30T00:14:03;13.70;99.90
7512;DHT22;9999;48.780;9.146;2023-08-30T00:16:31;13.70;99.90
7512;DHT22;9999;48.780;9.146;2023-08-30T00:18:57;13.70;99.90
7512;DHT22;9999;48.780;9.146;2023-08-30T00:21:24;13.60;99.90
7512;DHT22;9999;48.780;9.146;2023-08-30T00:23:52;13.70;99.90
7512;DHT22;9999;48.780;9.146;2023-08-30T00:26:19;13.70;99.90
7512;DHT22;9999;48.780;9.146;2023-08-30T00:28:47;13.70;99.90
7512;DHT22;9999;48.780;9.146;2023-08-30T00:31:14;13.60;99.90
7512;DHT22;9999;48.780;9.146;2023-08-30T00:33:44;13.60;99.90
7512;DHT22;9999;48.780;9.146;2023-08-30T00:36:12;13.50;99.90
7512;DHT22;9999;48.780;9.146;2023-08-30T00:38:38;13.40;99.90
7512;DHT22;9999;48.780;9.146;2023-08-30T00:41:05;13.30;99.90
7512;DHT22;9999;48.780;9.146;2023-08-30T00:43:32;13.30;99.90
7512;DHT22;9999;48.780;9.146;2023-08-30T00:46:01;13.30;99.90
7512;DHT22;9999;48.780;9.146;2023-08-30T00:48:28;13.20;99.90
7512;DHT22;9999;48.780;9.146;2023-08-30T00:50:55;13.20;99.90
7512;DHT22;9999;48.780;9.146;2023-08-30T00:53:22;13.40;99.90
7512;DHT22;9999;48.780;9.146;2023-08-30T00:55:49;13.50;99.90
7512;DHT22;9999;48.780;9.146;2023-08-30T00:58:16;13.50;99.90
7512;DHT22;9999;48.780;9.146;2023-08-30T01:00:44;13.60;99.90
7512;DHT22;9999;48.780;9.146;2023-08-30T01:03:14;13.60;99.90
7512;DHT22;9999;48.780;9.146;2023-08-30T01:05:40;13.70;99.90
7512;DHT22;9999;48.780;9.146;2023-08-30T01:08:07;13.70;99.90
7512;DHT22;9999;48.780;9.146;2023-08-30T01:10:47;13.70;99.90
7512;DHT22;9999;48.780;9.146;2023-08-30T01:13:18;13.70;99.90
7512;DHT22;9999;48.780;9.146;2023-08-30T01:15:47;13.70;99.90
7512;DHT22;9999;48.780;9.146;2023-08-30T01:18:18;13.70;99.90
7512;DHT22;9999;48.780;9.146;2023-08-30T01:20:46;13.70;99.90
7512;DHT22;9999;48.780;9.146;2023-08-30T01:23:20;13.60;99.90
7512;DHT22;9999;48.780;9.146;2023-08-30T01:25:57;13.50;99.90
7512;DHT22;9999;48.780;9.146;2023-08-30T01:28:30;13.50;99.90
7512;DHT22;9999;48.780;9.146;2023-08-30T01:30:57;13.50;99.90
7512;DHT22;9999;48.780;9.146;2023-08-30T01:33:27;13.50;99.90
7512;DHT22;9999;48.780;9.146;2023-08-30T01:35:55;13.40;99.90
7512;DHT22;9999;48.780;9.146;2023-08-30T01:38:25;13.40;99.90
7512;DHT22;9999;48.780;9.146;2023-08-30T01:40:56;13.40;99.90
7512;DHT22;9999;48.780;9.146;2023-08-30T01:43:26;13.40;99.90
7512;DHT22;9999;48.780;9.146;2023-08-30T01:45:55;13.50;99.90
7512;DHT22;9999;48.780;9.146;2023-08-30T01:48:23;13.50;99.90
7512;DHT22;9999;48.780;9.146;2023-08-30T01:50:50;13.40;99.90
7512;DHT22;9999;48.780;9.146;2023-08-30T01:53:18;13.40;99.90
7512;DHT22;9999;48.780;9.146;2023-08-30T01:55:46;13.30;99.90
7512;DHT22;9999;48.780;9.146;2023-08-30T01:58:13;13.30;99.90
7512;DHT22;9999;48.780;9.146;2023-08-30T02:00:43;13.30;99.90
7512;DHT22;9999;48.780;9.146;2023-08-30T02:03:10;13.20;99.90
7512;DHT22;9999;48.780;9.146;2023-08-30T02:05:41;13.20;99.90
7512;DHT22;9999;48.780;9.146;2023-08-30T02:08:13;13.10;99.90
7512;DHT22;9999;48.780;9.146;2023-08-30T02:10:45;13.10;99.90
7512;DHT22;9999;48.780;9.146;2023-08-30T02:13:18;13.20;99.90
7512;DHT22;9999;48.780;9.146;2023-08-30T02:15:49;13.20;99.90
7512;DHT22;9999;48.780;9.146;2023-08-30T02:18:16;13.20;99.90
7512;DHT22;9999;48.780;9.146;2023-08-30T02:20:43;13.20;99.90
7512;DHT22;9999;48.780;9.146;2023-08-30T02:23:10;13.20;99.90
7512;DHT22;9999;48.780;9.146;2023-08-30T02:25:37;13.20;99.90
7512;DHT22;9999;48.780;9.146;2023-08-30T02:28:04;13.20;99.90
7512;DHT22;9999;48.780;9.146;2023-08-30T02:30:32;13.10;99.90
7512;DHT22;9999;48.780;9.146;2023-08-30T02:33:00;13.10;99.90
7512;DHT22;9999;48.780;9.146;2023-08-30T02:35:27;13.00;99.90
7512;DHT22;9999;48.780;9.146;2023-08-30T02:37:54;13.00;99.90
7512;DHT22;9999;48.780;9.146;2023-08-30T02:40:21;13.00;99.90
7512;DHT22;9999;48.780;9.146;2023-08-30T02:42:48;13.00;99.90
7512;DHT22;9999;48.780;9.146;2023-08-30T02:45:15;13.00;99.90
7512;DHT22;9999;48.780;9.146;2023-08-30T02:47:44;13.00;99.90
7512;DHT22;9999;48.780;9.146;2023-08-30T02:50:12;13.00;99.90
7512;DHT22;9999;48.780;9.146;2023-08-30T02:52:39;12.90;99.90
7512;DHT22;9999;48.780;9.146;2023-08-30T02:55:06;12.80;99.90
7512;DHT22;9999;48.780;9.146;2023-08-30T02:57:33;12.80;99.90
7512;DHT22;9999;48.780;9.146;2023-08-30T03:00:00;12.70;99.90
7512;DHT22;9999;48.780;9.146;2023-08-30T03:02:28;12.70;99.90
7512;DHT22;9999;48.780;9.146;2023-08-30T03:04:55;12.80;99.90
7512;DHT22;9999;48.780;9.146;2023-08-30T03:07:24;12.90;99.90
7512;DHT22;9999;48.780;9.146;2023-08-30T03:09:52;12.80;99.90
7512;DHT22;9999;48.780;9.146;2023-08-30T03:12:19;12.70;99.90
7512;DHT22;9999;48.780;9.146;2023-08-30T03:14:46;12.80;99.90
7512;DHT22;9999;48.780;9.146;2023-08-30T03:17:13;12.80;99.90
7512;DHT22;9999;48.780;9.146;2023-08-30T03:19:40;12.80;99.90
7512;DHT22;9999;48.780;9.146;2023-08-30T03:22:07;12.90;99.90
7512;DHT22;9999;48.780;9.146;2023-08-30T03:24:35;12.90;99.90
7512;DHT22;9999;48.780;9.146;2023-08-30T03:27:02;12.90;99.90
7512;DHT22;9999;48.780;9.146;2023-08-30T03:29:32;13.00;99.90
7512;DHT22;9999;48.780;9.146;2023-08-30T03:31:59;13.00;99.90
7512;DHT22;9999;48.780;9.146;2023-08-30T03:34:26;13.00;99.90
7512;DHT22;9999;48.780;9.146;2023-08-30T03:36:53;12.90;99.90
7512;DHT22;9999;48.780;9.146;2023-08-30T03:39:20;12.90;99.90
7512;DHT22;9999;48.780;9.146;2023-08-30T03:41:48;12.90;99.90
7512;DHT22;9999;48.780;9.146;2023-08-30T03:44:15;12.90;99.90
7512;DHT22;9999;48.780;9.146;2023-08-30T03:46:44;12.90;99.90
7512;DHT22;9999;48.780;9.146;2023-08-30T03:49:11;12.90;99.90
7512;DHT22;9999;48.780;9.146;2023-08-30T03:51:38;12.90;99.90
7512;DHT22;9999;48.780;9.146;2023-08-30T03:54:05;12.90;99.90
7512;DHT22;9999;48.780;9.146;2023-08-30T03:56:34;12.80;99.90
7512;DHT22;9999;48.780;9.146;2023-08-30T03:59:03;12.90;99.90
7512;DHT22;9999;48.780;9.146;2023-08-30T04:01:29;12.80;99.90
7512;DHT22;9999;48.780;9.146;2023-08-30T04:03:57;12.90;99.90
7512;DHT22;9999;48.780;9.146;2023-08-30T04:06:26;12.90;99.90
7512;DHT22;9999;48.780;9.146;2023-08-30T04:08:52;12.90;99.90
7512;DHT22;9999;48.780;9.146;2023-08-30T04:11:19;13.00;99.90
7512;DHT22;9999;48.780;9.146;2023-08-30T04:13:46;13.00;99.90
7512;DHT22;9999;48.780;9.146;2023-08-30T04:16:14;13.00;99.90
7512;DHT22;9999;48.780;9.146;2023-08-30T04:18:41;13.10;99.90
7512;DHT22;9999;48.780;9.146;2023-08-30T04:21:08;13.10;99.90
7512;DHT22;9999;48.780;9.146;2023-08-30T04:23:35;13.10;99.90
7512;DHT22;9999;48.780;9.146;2023-08-30T04:26:01;13.10;99.90
7512;DHT22;9999;48.780;9.146;2023-08-30T04:28:28;13.10;99.90
7512;DHT22;9999;48.780;9.146;2023-08-30T04:30:56;13.20;99.90
7512;DHT22;9999;48.780;9.146;2023-08-30T04:33:25;13.20;99.90
7512;DHT22;9999;48.780;9.146;2023-08-30T04:35:52;13.20;99.90
7512;DHT22;9999;48.780;9.146;2023-08-30T04:38:19;13.20;99.90
7512;DHT22;9999;48.780;9.146;2023-08-30T04:40:47;13.20;99.90
7512;DHT22;9999;48.780;9.146;2023-08-30T04:43:15;13.20;99.90
7512;DHT22;9999;48.780;9.146;2023-08-30T04:45:42;13.10;99.90
7512;DHT22;9999;48.780;9.146;2023-08-30T04:48:08;13.00;99.90
7512;DHT22;9999;48.780;9.146;2023-08-30T04:50:36;12.80;99.90
7512;DHT22;9999;48.780;9.146;2023-08-30T04:53:04;12.70;99.90
7512;DHT22;9999;48.780;9.146;2023-08-30T04:55:31;12.70;99.90
7512;DHT22;9999;48.780;9.146;2023-08-30T04:57:59;12.70;99.90
7512;DHT22;9999;48.780;9.146;2023-08-30T05:00:29;12.60;99.90
7512;DHT22;9999;48.780;9.146;2023-08-30T05:02:56;12.60;99.90
7512;DHT22;9999;48.780;9.146;2023-08-30T05:05:23;12.60;99.90
7512;DHT22;9999;48.780;9.146;2023-08-30T05:07:51;12.70;99.90
7512;DHT22;9999;48.780;9.146;2023-08-30T05:10:18;12.70;99.90
7512;DHT22;9999;48.780;9.146;2023-08-30T05:12:45;12.80;99.90
7512;DHT22;9999;48.780;9.146;2023-08-30T05:15:17;12.80;99.90
7512;DHT22;9999;48.780;9.146;2023-08-30T05:17:46;12.90;99.90
7512;DHT22;9999;48.780;9.146;2023-08-30T05:20:13;13.00;99.90
7512;DHT22;9999;48.780;9.146;2023-08-30T05:22:39;13.00;99.90
7512;DHT22;9999;48.780;9.146;2023-08-30T05:25:08;13.10;99.90
7512;DHT22;9999;48.780;9.146;2023-08-30T05:27:35;13.10;99.90
7512;DHT22;9999;48.780;9.146;2023-08-30T05:30:02;13.20;99.90
7512;DHT22;9999;48.780;9.146;2023-08-30T05:32:29;13.20;99.90
7512;DHT22;9999;48.780;9.146;2023-08-30T05:35:13;13.20;99.90
7512;DHT22;9999;48.780;9.146;2023-08-30T05:37:52;13.20;99.90
7512;DHT22;9999;48.780;9.146;2023-08-30T05:40:46;13.10;99.90
7512;DHT22;9999;48.780;9.146;2023-08-30T05:43:13;13.10;99.90
7512;DHT22;9999;48.780;9.146;2023-08-30T05:45:42;13.10;99.90
7512;DHT22;9999;48.780;9.146;2023-08-30T05:48:09;13.20;99.90
7512;DHT22;9999;48.780;9.146;2023-08-30T05:50:36;13.10;99.90
7512;DHT22;9999;48.780;9.146;2023-08-30T05:53:03;13.10;99.90
7512;DHT22;9999;48.780;9.146;2023-08-30T05:55:30;13.20;99.90
7512;DHT22;9999;48.780;9.146;2023-08-30T05:57:58;13.20;99.90
7512;DHT22;9999;48.780;9.146;2023-08-30T06:00:25;13.20;99.90
7512;DHT22;9999;48.780;9.146;2023-08-30T06:02:52;13.10;99.90
7512;DHT22;9999;48.780;9.146;2023-08-30T06:05:18;13.00;99.90
7512;DHT22;9999;48.780;9.146;2023-08-30T06:07:45;13.10;99.90
7512;DHT22;9999;48.780;9.146;2023-08-30T06:10:12;12.90;99.90
7512;DHT22;9999;48.780;9.146;2023-08-30T06:12:39;12.90;99.90
7512;DHT22;9999;48.780;9.146;2023-08-30T06:15:08;13.00;99.90
7512;DHT22;9999;48.780;9.146;2023-08-30T06:17:35;13.10;99.90
7512;DHT22;9999;48.780;9.146;2023-08-30T06:20:02;13.20;99.90
7512;DHT22;9999;48.780;9.146;2023-08-30T06:22:30;13.20;99.90
7512;DHT22;9999;48.780;9.146;2023-08-30T06:24:57;13.40;99.90
7512;DHT22;9999;48.780;9.146;2023-08-30T06:27:24;13.40;99.90
7512;DHT22;9999;48.780;9.146;2023-08-30T06:29:50;13.40;99.90
7512;DHT22;9999;48.780;9.146;2023-08-30T06:32:18;13.40;99.90
7512;DHT22;9999;48.780;9.146;2023-08-30T06:34:45;13.40;99.90
7512;DHT22;9999;48.780;9.146;2023-08-30T06:37:12;13.50;99.90
7512;DHT22;9999;48.780;9.146;2023-08-30T06:39:39;13.50;99.90
7512;DHT22;9999;48.780;9.146;2023-08-30T06:42:06;13.50;99.90
7512;DHT22;9999;48.780;9.146;2023-08-30T06:44:33;13.60;99.90
7512;DHT22;9999;48.780;9.146;2023-08-30T06:47:00;13.50;99.90
7512;DHT22;9999;48.780;9.146;2023-08-30T06:49:28;13.60;99.90
7512;DHT22;9999;48.780;9.146;2023-08-30T06:51:57;13.60;99.90
7512;DHT22;9999;48.780;9.146;2023-08-30T06:54:23;13.50;99.90
7512;DHT22;9999;48.780;9.146;2023-08-30T06:57:00;13.40;99.90
7512;DHT22;9999;48.780;9.146;2023-08-30T06:59:27;13.40;99.90
7512;DHT22;9999;48.780;9.146;2023-08-30T07:01:54;13.40;99.90
7512;DHT22;9999;48.780;9.146;2023-08-30T07:04:21;13.50;99.90
7512;DHT22;9999;48.780;9.146;2023-08-30T07:06:49;13.50;99.90
7512;DHT22;9999;48.780;9.146;2023-08-30T07:09:16;13.60;99.90
7512;DHT22;9999;48.780;9.146;2023-08-30T07:11:43;13.60;99.90
7512;DHT22;9999;48.780;9.146;2023-08-30T07:14:11;13.70;99.90
7512;DHT22;9999;48.780;9.146;2023-08-30T07:16:38;13.70;99.90
7512;DHT22;9999;48.780;9.146;2023-08-30T07:19:05;13.70;99.90
7512;DHT22;9999;48.780;9.146;2023-08-30T07:21:32;13.60;99.90
7512;DHT22;9999;48.780;9.146;2023-08-30T07:24:03;13.60;99.90
7512;DHT22;9999;48.780;9.146;2023-08-30T07:26:30;13.60;99.90
7512;DHT22;9999;48.780;9.146;2023-08-30T07:28:57;13.60;99.90
7512;DHT22;9999;48.780;9.146;2023-08-30T07:31:24;13.50;99.90
7512;DHT22;9999;48.780;9.146;2023-08-30T07:33:50;13.60;99.90
7512;DHT22;9999;48.780;9.146;2023-08-30T07:36:17;13.60;99.90
7512;DHT22;9999;48.780;9.146;2023-08-30T07:38:44;13.60;99.90
7512;DHT22;9999;48.780;9.146;2023-08-30T07:41:12;13.60;99.90
7512;DHT22;9999;48.780;9.146;2023-08-30T07:43:40;13.60;99.90
7512;DHT22;9999;48.780;9.146;2023-08-30T07:46:06;13.70;99.90
7512;DHT22;9999;48.780;9.146;2023-08-30T07:48:33;13.80;99.90
7512;DHT22;9999;48.780;9.146;2023-08-30T07:51:00;13.80;99.90
7512;DHT22;9999;48.780;9.146;2023-08-30T07:53:27;13.90;99.90
7512;DHT22;9999;48.780;9.146;2023-08-30T07:55:54;14.00;99.90
7512;DHT22;9999;48.780;9.146;2023-08-30T07:58:22;14.00;99.90
7512;DHT22;9999;48.780;9.146;2023-08-30T08:00:50;13.90;99.90
7512;DHT22;9999;48.780;9.146;2023-08-30T08:03:17;13.80;99.90
7512;DHT22;9999;48.780;9.146;2023-08-30T08:05:44;13.90;99.90
7512;DHT22;9999;48.780;9.146;2023-08-30T08:08:11;14.10;99.90
7512;DHT22;9999;48.780;9.146;2023-08-30T08:10:38;14.10;99.90
7512;DHT22;9999;48.780;9.146;2023-08-30T08:13:04;14.20;99.90
7512;DHT22;9999;48.780;9.146;2023-08-30T08:15:33;14.20;99.90
7512;DHT22;9999;48.780;9.146;2023-08-30T08:18:00;14.30;99.90
7512;DHT22;9999;48.780;9.146;2023-08-30T08:20:28;14.40;99.90
7512;DHT22;9999;48.780;9.146;2023-08-30T08:22:55;14.30;99.90
7512;DHT22;9999;48.780;9.146;2023-08-30T08:25:22;14.30;99.90
7512;DHT22;9999;48.780;9.146;2023-08-30T08:27:49;14.20;99.90
7512;DHT22;9999;48.780;9.146;2023-08-30T08:30:16;14.40;99.90
7512;DHT22;9999;48.780;9.146;2023-08-30T08:32:46;14.40;99.90
7512;DHT22;9999;48.780;9.146;2023-08-30T08:35:13;14.50;99.90
7512;DHT22;9999;48.780;9.146;2023-08-30T08:37:40;14.50;99.90
7512;DHT22;9999;48.780;9.146;2023-08-30T08:40:08;14.50;99.90
7512;DHT22;9999;48.780;9.146;2023-08-30T08:42:35;14.50;99.90
7512;DHT22;9999;48.780;9.146;2023-08-30T08:45:03;14.60;99.90
7512;DHT22;9999;48.780;9.146;2023-08-30T08:47:30;14.60;99.90
7512;DHT22;9999;48.780;9.146;2023-08-30T08:49:59;14.70;99.90
7512;DHT22;9999;48.780;9.146;2023-08-30T08:52:27;14.80;99.90
7512;DHT22;9999;48.780;9.146;2023-08-30T08:54:55;14.90;99.90
7512;DHT22;9999;48.780;9.146;2023-08-30T08:57:22;14.80;99.90
7512;DHT22;9999;48.780;9.146;2023-08-30T08:59:48;14.80;99.90
7512;DHT22;9999;48.780;9.146;2023-08-30T09:02:15;15.00;99.90
7512;DHT22;9999;48.780;9.146;2023-08-30T09:04:42;15.20;99.90
7512;DHT22;9999;48.780;9.146;2023-08-30T09:07:11;15.20;99.90
7512;DHT22;9999;48.780;9.146;2023-08-30T09:09:38;15.20;99.90
7512;DHT22;9999;48.780;9.146;2023-08-30T09:12:06;15.10;99.90
7512;DHT22;9999;48.780;9.146;2023-08-30T09:14:33;15.30;99.90
7512;DHT22;9999;48.780;9.146;2023-08-30T09:17:01;15.60;99.90
7512;DHT22;9999;48.780;9.146;2023-08-30T09:19:28;15.80;99.90
7512;DHT22;9999;48.780;9.146;2023-08-30T09:21:56;15.90;99.90
7512;DHT22;9999;48.780;9.146;2023-08-30T09:24:25;16.00;99.90
7512;DHT22;9999;48.780;9.146;2023-08-30T09:26:53;16.20;99.90
7512;DHT22;9999;48.780;9.146;2023-08-30T09:29:21;16.30;99.90
7512;DHT22;9999;48.780;9.146;2023-08-30T09:31:51;16.40;99.90
7512;DHT22;9999;48.780;9.146;2023-08-30T09:34:22;16.50;99.90
7512;DHT22;9999;48.780;9.146;2023-08-30T09:36:49;16.70;99.90
7512;DHT22;9999;48.780;9.146;2023-08-30T09:39:16;16.90;99.90
7512;DHT22;9999;48.780;9.146;2023-08-30T09:41:45;16.90;99.90
7512;DHT22;9999;48.780;9.146;2023-08-30T09:44:13;16.90;99.90
7512;DHT22;9999;48.780;9.146;2023-08-30T09:46:42;17.00;99.90
7512;DHT22;9999;48.780;9.146;2023-08-30T09:49:09;17.10;99.90
7512;DHT22;9999;48.780;9.146;2023-08-30T09:51:39;17.30;99.90
7512;DHT22;9999;48.780;9.146;2023-08-30T09:54:14;17.40;99.90
7512;DHT22;9999;48.780;9.146;2023-08-30T09:56:41;17.50;99.90
7512;DHT22;9999;48.780;9.146;2023-08-30T09:59:11;17.70;99.90
7512;DHT22;9999;48.780;9.146;2023-08-30T10:01:38;17.80;99.90
7512;DHT22;9999;48.780;9.146;2023-08-30T10:04:07;17.80;99.90
7512;DHT22;9999;48.780;9.146;2023-08-30T10:06:35;17.90;99.90
7512;DHT22;9999;48.780;9.146;2023-08-30T10:09:02;18.00;99.90
7512;DHT22;9999;48.780;9.146;2023-08-30T10:11:33;18.10;99.90
7512;DHT22;9999;48.780;9.146;2023-08-30T10:14:00;18.10;99.90
7512;DHT22;9999;48.780;9.146;2023-08-30T10:16:35;18.10;99.90
7512;DHT22;9999;48.780;9.146;2023-08-30T10:19:09;18.20;99.90
7512;DHT22;9999;48.780;9.146;2023-08-30T10:21:36;18.20;99.90
7512;DHT22;9999;48.780;9.146;2023-08-30T10:24:05;18.20;99.90
7512;DHT22;9999;48.780;9.146;2023-08-30T10:26:34;18.40;99.90
7512;DHT22;9999;48.780;9.146;2023-08-30T10:29:01;18.50;99.90
7512;DHT22;9999;48.780;9.146;2023-08-30T10:31:30;18.60;99.90
7512;DHT22;9999;48.780;9.146;2023-08-30T10:33:57;18.70;99.90
7512;DHT22;9999;48.780;9.146;2023-08-30T10:36:25;18.80;99.90
7512;DHT22;9999;48.780;9.146;2023-08-30T10:38:53;19.00;99.90
7512;DHT22;9999;48.780;9.146;2023-08-30T10:41:20;19.10;99.90
7512;DHT22;9999;48.780;9.146;2023-08-30T10:43:50;18.80;99.90
7512;DHT22;9999;48.780;9.146;2023-08-30T10:46:28;18.80;99.90
7512;DHT22;9999;48.780;9.146;2023-08-30T10:49:07;18.80;99.90
7512;DHT22;9999;48.780;9.146;2023-08-30T10:51:36;18.80;99.90
7512;DHT22;9999;48.780;9.146;2023-08-30T10:54:10;18.80;99.90
7512;DHT22;9999;48.780;9.146;2023-08-30T10:56:46;18.90;99.90
7512;DHT22;9999;48.780;9.146;2023-08-30T10:59:16;19.10;99.90
7512;DHT22;9999;48.780;9.146;2023-08-30T11:01:44;19.20;99.90
7512;DHT22;9999;48.780;9.146;2023-08-30T11:04:15;19.30;99.90
7512;DHT22;9999;48.780;9.146;2023-08-30T11:06:43;19.40;99.90
7512;DHT22;9999;48.780;9.146;2023-08-30T11:09:10;19.10;99.90
7512;DHT22;9999;48.780;9.146;2023-08-30T11:11:38;19.10;99.90
7512;DHT22;9999;48.780;9.146;2023-08-30T11:14:06;19.40;99.90
7512;DHT22;9999;48.780;9.146;2023-08-30T11:16:33;19.60;99.90
7512;DHT22;9999;48.780;9.146;2023-08-30T11:19:00;19.80;99.90
7512;DHT22;9999;48.780;9.146;2023-08-30T11:21:29;19.70;99.90
7512;DHT22;9999;48.780;9.146;2023-08-30T11:23:56;19.80;99.90
7512;DHT22;9999;48.780;9.146;2023-08-30T11:26:23;19.90;99.90
7512;DHT22;9999;48.780;9.146;2023-08-30T11:28:50;20.00;99.90
7512;DHT22;9999;48.780;9.146;2023-08-30T11:31:19;19.70;99.90
7512;DHT22;9999;48.780;9.146;2023-08-30T11:33:51;19.50;99.90
7512;DHT22;9999;48.780;9.146;2023-08-30T11:36:20;19.20;99.90
7512;DHT22;9999;48.780;9.146;2023-08-30T11:38:51;19.20;99.90
7512;DHT22;9999;48.780;9.146;2023-08-30T11:41:19;18.90;99.90
7512;DHT22;9999;48.780;9.146;2023-08-30T11:43:47;18.90;99.90
7512;DHT22;9999;48.780;9.146;2023-08-30T11:46:14;18.70;99.90
7512;DHT22;9999;48.780;9.146;2023-08-30T11:48:42;18.40;99.90
7512;DHT22;9999;48.780;9.146;2023-08-30T11:51:09;18.10;99.90
7512;DHT22;9999;48.780;9.146;2023-08-30T11:53:36;17.90;99.90
7512;DHT22;9999;48.780;9.146;2023-08-30T11:56:05;17.50;99.90
7512;DHT22;9999;48.780;9.146;2023-08-30T11:58:33;17.20;99.90
7512;DHT22;9999;48.780;9.146;2023-08-30T12:01:00;17.00;99.90
7512;DHT22;9999;48.780;9.146;2023-08-30T12:03:27;16.90;99.90
7512;DHT22;9999;48.780;9.146;2023-08-30T12:05:55;16.70;99.90
7512;DHT22;9999;48.780;9.146;2023-08-30T12:08:24;16.70;99.90
7512;DHT22;9999;48.780;9.146;2023-08-30T12:10:51;16.70;99.90
7512;DHT22;9999;48.780;9.146;2023-08-30T12:13:23;16.70;99.90
7512;DHT22;9999;48.780;9.146;2023-08-30T12:15:50;16.40;99.90
7512;DHT22;9999;48.780;9.146;2023-08-30T12:18:20;16.30;99.90
7512;DHT22;9999;48.780;9.146;2023-08-30T12:20:54;16.20;99.90
7512;DHT22;9999;48.780;9.146;2023-08-30T12:23:22;16.40;99.90
7512;DHT22;9999;48.780;9.146;2023-08-30T12:25:59;16.50;99.90
7512;DHT22;9999;48.780;9.146;2023-08-30T12:28:28;16.50;99.90
7512;DHT22;9999;48.780;9.146;2023-08-30T12:30:55;16.50;99.90
7512;DHT22;9999;48.780;9.146;2023-08-30T12:33:22;16.60;99.90
7512;DHT22;9999;48.780;9.146;2023-08-30T12:35:51;16.40;99.90
7512;DHT22;9999;48.780;9.146;2023-08-30T12:38:17;16.40;99.90
7512;DHT22;9999;48.780;9.146;2023-08-30T12:40:45;16.50;99.90
7512;DHT22;9999;48.780;9.146;2023-08-30T12:43:11;16.70;99.90
7512;DHT22;9999;48.780;9.146;2023-08-30T12:45:40;16.50;99.90
7512;DHT22;9999;48.780;9.146;2023-08-30T12:48:07;16.60;99.90
7512;DHT22;9999;48.780;9.146;2023-08-30T12:50:35;16.70;99.90
7512;DHT22;9999;48.780;9.146;2023-08-30T12:53:02;16.70;99.90
7512;DHT22;9999;48.780;9.146;2023-08-30T12:55:29;16.70;99.90
7512;DHT22;9999;48.780;9.146;2023-08-30T12:57:56;16.80;99.90
7512;DHT22;9999;48.780;9.146;2023-08-30T13:00:24;16.90;99.90
7512;DHT22;9999;48.780;9.146;2023-08-30T13:02:52;16.80;99.90
7512;DHT22;9999;48.780;9.146;2023-08-30T13:05:19;16.90;99.90
7512;DHT22;9999;48.780;9.146;2023-08-30T13:07:47;16.90;99.90
7512;DHT22;9999;48.780;9.146;2023-08-30T13:10:14;17.00;99.90
7512;DHT22;9999;48.780;9.146;2023-08-30T13:12:42;16.90;99.90
7512;DHT22;9999;48.780;9.146;2023-08-30T13:15:09;16.90;99.90
7512;DHT22;9999;48.780;9.146;2023-08-30T13:17:36;17.10;99.90
7512;DHT22;9999;48.780;9.146;2023-08-30T13:20:05;17.30;99.90
7512;DHT22;9999;48.780;9.146;2023-08-30T13:22:32;17.50;99.90
7512;DHT22;9999;48.780;9.146;2023-08-30T13:24:59;17.60;99.90
7512;DHT22;9999;48.780;9.146;2023-08-30T13:27:26;17.60;99.90
7512;DHT22;9999;48.780;9.146;2023-08-30T13:29:53;17.70;99.90
7512;DHT22;9999;48.780;9.146;2023-08-30T13:32:20;17.50;99.90
7512;DHT22;9999;48.780;9.146;2023-08-30T13:34:46;17.70;99.90
7512;DHT22;9999;48.780;9.146;2023-08-30T13:37:14;17.80;99.90
7512;DHT22;9999;48.780;9.146;2023-08-30T13:39:41;17.90;99.90
7512;DHT22;9999;48.780;9.146;2023-08-30T13:42:08;18.00;99.90
7512;DHT22;9999;48.780;9.146;2023-08-30T13:44:35;18.30;99.90
7512;DHT22;9999;48.780;9.146;2023-08-30T13:47:03;18.30;99.90
7512;DHT22;9999;48.780;9.146;2023-08-30T13:49:30;18.50;99.90
7512;DHT22;9999;48.780;9.146;2023-08-30T13:51:58;18.60;99.90
7512;DHT22;9999;48.780;9.146;2023-08-30T13:54:26;18.80;99.90
7512;DHT22;9999;48.780;9.146;2023-08-30T13:56:56;18.80;99.90
7512;DHT22;9999;48.780;9.146;2023-08-30T13:59:23;18.80;99.90
7512;DHT22;9999;48.780;9.146;2023-08-30T14:01:50;18.70;99.90
7512;DHT22;9999;48.780;9.146;2023-08-30T14:04:17;18.70;99.90
7512;DHT22;9999;48.780;9.146;2023-08-30T14:06:43;18.70;99.90
7512;DHT22;9999;48.780;9.146;2023-08-30T14:09:10;18.60;99.90
7512;DHT22;9999;48.780;9.146;2023-08-30T14:11:39;18.40;99.90
7512;DHT22;9999;48.780;9.146;2023-08-30T14:14:07;18.20;99.90
7512;DHT22;9999;48.780;9.146;2023-08-30T14:16:34;18.00;99.90
7512;DHT22;9999;48.780;9.146;2023-08-30T14:19:02;18.10;99.90
7512;DHT22;9999;48.780;9.146;2023-08-30T14:21:31;18.20;99.90
7512;DHT22;9999;48.780;9.146;2023-08-30T14:23:58;18.30;99.90
7512;DHT22;9999;48.780;9.146;2023-08-30T14:26:25;18.40;99.90
7512;DHT22;9999;48.780;9.146;2023-08-30T14:28:53;18.00;99.90
7512;DHT22;9999;48.780;9.146;2023-08-30T14:31:20;17.80;99.90
7512;DHT22;9999;48.780;9.146;2023-08-30T14:33:47;17.80;99.90
7512;DHT22;9999;48.780;9.146;2023-08-30T14:36:14;17.70;99.90
7512;DHT22;9999;48.780;9.146;2023-08-30T14:38:41;17.60;99.90
7512;DHT22;9999;48.780;9.146;2023-08-30T14:41:08;17.40;99.90
7512;DHT22;9999;48.780;9.146;2023-08-30T14:43:35;17.30;99.90
7512;DHT22;9999;48.780;9.146;2023-08-30T14:46:05;17.30;99.90
7512;DHT22;9999;48.780;9.146;2023-08-30T14:48:32;17.30;99.90
7512;DHT22;9999;48.780;9.146;2023-08-30T14:50:59;17.10;99.90
7512;DHT22;9999;48.780;9.146;2023-08-30T14:53:26;17.10;99.90
7512;DHT22;9999;48.780;9.146;2023-08-30T14:55:53;17.30;99.90
7512;DHT22;9999;48.780;9.146;2023-08-30T14:58:20;17.30;99.90
7512;DHT22;9999;48.780;9.146;2023-08-30T15:00:47;17.30;99.90
7512;DHT22;9999;48.780;9.146;2023-08-30T15:03:16;17.30;99.90
7512;DHT22;9999;48.780;9.146;2023-08-30T15:05:43;17.50;99.90
7512;DHT22;9999;48.780;9.146;2023-08-30T15:08:09;17.60;99.90
7512;DHT22;9999;48.780;9.146;2023-08-30T15:10:36;17.70;99.90
7512;DHT22;9999;48.780;9.146;2023-08-30T15:13:03;17.50;99.90
7512;DHT22;9999;48.780;9.146;2023-08-30T15:15:30;17.50;99.90
7512;DHT22;9999;48.780;9.146;2023-08-30T15:17:57;17.40;99.90
7512;DHT22;9999;48.780;9.146;2023-08-30T15:20:25;17.40;99.90
7512;DHT22;9999;48.780;9.146;2023-08-30T15:22:52;17.60;99.90
7512;DHT22;9999;48.780;9.146;2023-08-30T15:25:19;17.70;99.90
7512;DHT22;9999;48.780;9.146;2023-08-30T15:27:46;17.80;99.90
7512;DHT22;9999;48.780;9.146;2023-08-30T15:30:13;17.90;99.90
7512;DHT22;9999;48.780;9.146;2023-08-30T15:32:40;17.90;99.90
7512;DHT22;9999;48.780;9.146;2023-08-30T15:35:09;17.80;99.90
7512;DHT22;9999;48.780;9.146;2023-08-30T15:37:37;17.70;99.90
7512;DHT22;9999;48.780;9.146;2023-08-30T15:40:05;17.80;99.90
7512;DHT22;9999;48.780;9.146;2023-08-30T15:42:34;17.80;99.90
7512;DHT22;9999;48.780;9.146;2023-08-30T15:45:01;17.80;99.90
7512;DHT22;9999;48.780;9.146;2023-08-30T15:47:31;17.70;99.90
7512;DHT22;9999;48.780;9.146;2023-08-30T15:49:57;17.60;99.90
7512;DHT22;9999;48.780;9.146;2023-08-30T15:52:24;17.50;99.90
7512;DHT22;9999;48.780;9.146;2023-08-30T15:54:52;17.70;99.90
7512;DHT22;9999;48.780;9.146;2023-08-30T15:57:20;17.80;99.90
7512;DHT22;9999;48.780;9.146;2023-08-30T15:59:46;17.90;99.90
7512;DHT22;9999;48.780;9.146;2023-08-30T16:02:14;17.90;99.90
7512;DHT22;9999;48.780;9.146;2023-08-30T16:04:40;17.90;99.90
7512;DHT22;9999;48.780;9.146;2023-08-30T16:07:07;18.00;99.90